sensor_id;sensor_type;location;lat;lon;timestamp;P1;durP1;ratioP1;P2;durP2;ratioP2
74177;SDS011;62540;48.456;-4.456;2023-08-07T00:00:30;2.00;;;2.00;;
74177;SDS011;62540;48.456;-4.456;2023-08-07T00:02:55;1.50;;;1.50;;
74177;SDS011;62540;48.456;-4.456;2023-08-07T00:05:21;1.50;;;1.50;;
74177;SDS011;62540;48.456;-4.456;2023-08-07T00:07:46;3.00;;;2.00;;
74177;SDS011;62540;48.456;-4.456;2023-08-07T00:10:12;2.25;;;2.00;;
74177;SDS011;62540;48.456;-4.456;2023-08-07T00:12:38;1.00;;;1.00;;
74177;SDS011;62540;48.456;-4.456;2023-08-07T00:15:03;2.00;;;2.00;;
74177;SDS011;62540;48.456;-4.456;2023-08-07T00:17:29;1.00;;;1.00;;
74177;SDS011;62540;48.456;-4.456;2023-08-07T00:19:54;1.00;;;0.25;;
74177;SDS011;62540;48.456;-4.456;2023-08-07T00:22:20;2.25;;;2.25;;
74177;SDS011;62540;48.456;-4.456;2023-08-07T00:24:45;3.00;;;1.50;;
74177;SDS011;62540;48.456;-4.456;2023-08-07T00:27:11;1.50;;;1.00;;
74177;SDS011;62540;48.456;-4.456;2023-08-07T00:29:37;2.00;;;2.00;;
74177;SDS011;62540;48.456;-4.456;2023-08-07T00:32:03;1.50;;;1.50;;
74177;SDS011;62540;48.456;-4.456;2023-08-07T00:34:29;3.00;;;1.00;;
74177;SDS011;62540;48.456;-4.456;2023-08-07T00:36:54;2.50;;;1.50;;
74177;SDS011;62540;48.456;-4.456;2023-08-07T00:39:20;1.75;;;1.75;;
74177;SDS011;62540;48.456;-4.456;2023-08-07T00:41:46;2.25;;;2.00;;
74177;SDS011;62540;48.456;-4.456;2023-08-07T00:44:11;2.25;;;1.25;;
74177;SDS011;62540;48.456;-4.456;2023-08-07T00:46:37;3.00;;;1.50;;
74177;SDS011;62540;48.456;-4.456;2023-08-07T00:49:04;3.50;;;3.00;;
74177;SDS011;62540;48.456;-4.456;2023-08-07T00:51:30;2.00;;;1.75;;
74177;SDS011;62540;48.456;-4.456;2023-08-07T00:53:56;2.00;;;2.00;;
74177;SDS011;62540;48.456;-4.456;2023-08-07T00:56:23;2.75;;;1.50;;
74177;SDS011;62540;48.456;-4.456;2023-08-07T00:58:49;2.50;;;2.00;;
74177;SDS011;62540;48.456;-4.456;2023-08-07T01:01:15;2.00;;;2.00;;
74177;SDS011;62540;48.456;-4.456;2023-08-07T01:03:40;1.00;;;1.00;;
74177;SDS011;62540;48.456;-4.456;2023-08-07T01:06:06;1.50;;;1.50;;
74177;SDS011;62540;48.456;-4.456;2023-08-07T01:08:31;1.00;;;1.00;;
74177;SDS011;62540;48.456;-4.456;2023-08-07T01:16:35;3.00;;;1.50;;
74177;SDS011;62540;48.456;-4.456;2023-08-07T01:19:08;2.00;;;2.00;;
74177;SDS011;62540;48.456;-4.456;2023-08-07T01:22:04;2.00;;;2.00;;
74177;SDS011;62540;48.456;-4.456;2023-08-07T01:24:30;2.00;;;2.00;;
74177;SDS011;62540;48.456;-4.456;2023-08-07T01:26:56;1.00;;;1.00;;
74177;SDS011;62540;48.456;-4.456;2023-08-07T01:29:27;2.00;;;1.00;;
74177;SDS011;62540;48.456;-4.456;2023-08-07T01:32:01;2.25;;;2.00;;
74177;SDS011;62540;48.456;-4.456;2023-08-07T01:34:33;2.00;;;2.00;;
74177;SDS011;62540;48.456;-4.456;2023-08-07T01:37:00;1.50;;;1.00;;
74177;SDS011;62540;48.456;-4.456;2023-08-07T01:39:28;1.00;;;1.00;;
74177;SDS011;62540;48.456;-4.456;2023-08-07T01:41:54;2.00;;;1.00;;
74177;SDS011;62540;48.456;-4.456;2023-08-07T01:44:20;2.75;;;1.00;;
74177;SDS011;62540;48.456;-4.456;2023-08-07T01:46:46;2.00;;;1.75;;
74177;SDS011;62540;48.456;-4.456;2023-08-07T01:49:11;1.00;;;1.00;;
74177;SDS011;62540;48.456;-4.456;2023-08-07T01:51:36;1.00;;;1.00;;
74177;SDS011;62540;48.456;-4.456;2023-08-07T01:54:02;1.50;;;1.50;;
74177;SDS011;62540;48.456;-4.456;2023-08-07T01:56:27;1.25;;;1.25;;
74177;SDS011;62540;48.456;-4.456;2023-08-07T01:58:53;2.00;;;2.00;;
74177;SDS011;62540;48.456;-4.456;2023-08-07T02:01:18;2.00;;;2.00;;
74177;SDS011;62540;48.456;-4.456;2023-08-07T02:03:43;2.25;;;1.00;;
74177;SDS011;62540;48.456;-4.456;2023-08-07T02:06:09;1.00;;;0.00;;
74177;SDS011;62540;48.456;-4.456;2023-08-07T02:08:34;0.75;;;0.75;;
74177;SDS011;62540;48.456;-4.456;2023-08-07T02:10:59;2.00;;;1.00;;
74177;SDS011;62540;48.456;-4.456;2023-08-07T02:13:26;0.00;;;0.00;;
74177;SDS011;62540;48.456;-4.456;2023-08-07T02:15:52;0.50;;;0.50;;
74177;SDS011;62540;48.456;-4.456;2023-08-07T02:18:17;0.00;;;0.00;;
74177;SDS011;62540;48.456;-4.456;2023-08-07T02:20:42;0.75;;;0.25;;
74177;SDS011;62540;48.456;-4.456;2023-08-07T02:23:08;1.50;;;1.00;;
74177;SDS011;62540;48.456;-4.456;2023-08-07T02:25:34;1.00;;;1.00;;
74177;SDS011;62540;48.456;-4.456;2023-08-07T02:27:59;0.75;;;0.75;;
74177;SDS011;62540;48.456;-4.456;2023-08-07T02:30:24;1.50;;;0.00;;
74177;SDS011;62540;48.456;-4.456;2023-08-07T02:32:50;1.00;;;1.00;;
74177;SDS011;62540;48.456;-4.456;2023-08-07T02:35:15;0.00;;;0.00;;
74177;SDS011;62540;48.456;-4.456;2023-08-07T02:37:40;1.75;;;0.00;;
74177;SDS011;62540;48.456;-4.456;2023-08-07T02:40:06;0.75;;;0.50;;
74177;SDS011;62540;48.456;-4.456;2023-08-07T02:42:32;1.00;;;1.00;;
74177;SDS011;62540;48.456;-4.456;2023-08-07T02:44:57;1.00;;;1.00;;
74177;SDS011;62540;48.456;-4.456;2023-08-07T02:47:22;1.00;;;1.00;;
74177;SDS011;62540;48.456;-4.456;2023-08-07T02:49:48;2.00;;;0.50;;
74177;SDS011;62540;48.456;-4.456;2023-08-07T02:52:13;1.00;;;0.25;;
74177;SDS011;62540;48.456;-4.456;2023-08-07T02:54:39;1.00;;;1.00;;
74177;SDS011;62540;48.456;-4.456;2023-08-07T02:57:04;2.00;;;1.00;;
74177;SDS011;62540;48.456;-4.456;2023-08-07T02:59:30;1.00;;;1.00;;
74177;SDS011;62540;48.456;-4.456;2023-08-07T03:01:55;1.00;;;1.00;;
74177;SDS011;62540;48.456;-4.456;2023-08-07T03:04:21;1.00;;;0.00;;
74177;SDS011;62540;48.456;-4.456;2023-08-07T03:06:46;0.00;;;0.00;;
74177;SDS011;62540;48.456;-4.456;2023-08-07T03:09:11;0.00;;;0.00;;
74177;SDS011;62540;48.456;-4.456;2023-08-07T03:11:37;0.50;;;0.25;;
74177;SDS011;62540;48.456;-4.456;2023-08-07T03:14:02;2.00;;;0.25;;
74177;SDS011;62540;48.456;-4.456;2023-08-07T03:16:28;1.25;;;0.50;;
74177;SDS011;62540;48.456;-4.456;2023-08-07T03:18:53;2.00;;;1.00;;
74177;SDS011;62540;48.456;-4.456;2023-08-07T03:21:19;1.50;;;1.00;;
74177;SDS011;62540;48.456;-4.456;2023-08-07T03:23:44;1.00;;;0.00;;
74177;SDS011;62540;48.456;-4.456;2023-08-07T03:26:11;1.25;;;1.00;;
74177;SDS011;62540;48.456;-4.456;2023-08-07T03:28:37;0.50;;;0.50;;
74177;SDS011;62540;48.456;-4.456;2023-08-07T03:31:03;1.00;;;1.00;;
74177;SDS011;62540;48.456;-4.456;2023-08-07T03:33:29;0.00;;;0.00;;
74177;SDS011;62540;48.456;-4.456;2023-08-07T03:35:54;1.00;;;1.00;;
74177;SDS011;62540;48.456;-4.456;2023-08-07T03:38:20;0.00;;;0.00;;
74177;SDS011;62540;48.456;-4.456;2023-08-07T03:40:45;0.00;;;0.00;;
74177;SDS011;62540;48.456;-4.456;2023-08-07T03:43:11;0.00;;;0.00;;
74177;SDS011;62540;48.456;-4.456;2023-08-07T03:45:36;1.00;;;0.00;;
74177;SDS011;62540;48.456;-4.456;2023-08-07T03:48:02;1.00;;;1.00;;
74177;SDS011;62540;48.456;-4.456;2023-08-07T03:50:27;0.00;;;0.00;;
74177;SDS011;62540;48.456;-4.456;2023-08-07T03:52:52;1.75;;;1.00;;
74177;SDS011;62540;48.456;-4.456;2023-08-07T03:55:18;2.00;;;0.75;;
74177;SDS011;62540;48.456;-4.456;2023-08-07T03:57:43;0.50;;;0.00;;
74177;SDS011;62540;48.456;-4.456;2023-08-07T04:00:09;1.00;;;1.00;;
74177;SDS011;62540;48.456;-4.456;2023-08-07T04:02:35;0.00;;;0.00;;
74177;SDS011;62540;48.456;-4.456;2023-08-07T04:05:00;1.00;;;1.00;;
74177;SDS011;62540;48.456;-4.456;2023-08-07T04:07:26;1.00;;;0.00;;
74177;SDS011;62540;48.456;-4.456;2023-08-07T04:09:51;0.50;;;0.50;;
74177;SDS011;62540;48.456;-4.456;2023-08-07T04:12:16;1.00;;;0.00;;
74177;SDS011;62540;48.456;-4.456;2023-08-07T04:14:42;0.00;;;0.00;;
74177;SDS011;62540;48.456;-4.456;2023-08-07T04:17:07;0.25;;;0.25;;
74177;SDS011;62540;48.456;-4.456;2023-08-07T04:19:32;0.50;;;0.50;;
74177;SDS011;62540;48.456;-4.456;2023-08-07T04:21:58;0.00;;;0.00;;
74177;SDS011;62540;48.456;-4.456;2023-08-07T04:24:23;0.75;;;0.00;;
74177;SDS011;62540;48.456;-4.456;2023-08-07T04:26:49;2.00;;;1.00;;
74177;SDS011;62540;48.456;-4.456;2023-08-07T04:29:14;0.00;;;0.00;;
74177;SDS011;62540;48.456;-4.456;2023-08-07T04:31:39;1.00;;;0.00;;
74177;SDS011;62540;48.456;-4.456;2023-08-07T04:34:05;0.75;;;0.75;;
74177;SDS011;62540;48.456;-4.456;2023-08-07T04:36:30;0.75;;;0.00;;
74177;SDS011;62540;48.456;-4.456;2023-08-07T04:38:55;2.00;;;2.00;;
74177;SDS011;62540;48.456;-4.456;2023-08-07T04:41:21;1.25;;;0.75;;
74177;SDS011;62540;48.456;-4.456;2023-08-07T04:43:47;1.75;;;0.75;;
74177;SDS011;62540;48.456;-4.456;2023-08-07T04:46:13;0.50;;;0.50;;
74177;SDS011;62540;48.456;-4.456;2023-08-07T04:48:39;0.75;;;0.75;;
74177;SDS011;62540;48.456;-4.456;2023-08-07T04:51:05;0.75;;;0.75;;
74177;SDS011;62540;48.456;-4.456;2023-08-07T04:53:30;0.00;;;0.00;;
74177;SDS011;62540;48.456;-4.456;2023-08-07T04:55:55;0.00;;;0.00;;
74177;SDS011;62540;48.456;-4.456;2023-08-07T04:58:21;0.75;;;0.75;;
74177;SDS011;62540;48.456;-4.456;2023-08-07T05:00:46;0.50;;;0.00;;
74177;SDS011;62540;48.456;-4.456;2023-08-07T05:03:12;0.00;;;0.00;;
74177;SDS011;62540;48.456;-4.456;2023-08-07T05:05:37;0.75;;;0.75;;
74177;SDS011;62540;48.456;-4.456;2023-08-07T05:08:03;0.75;;;0.75;;
74177;SDS011;62540;48.456;-4.456;2023-08-07T05:10:28;0.75;;;0.75;;
74177;SDS011;62540;48.456;-4.456;2023-08-07T05:12:54;0.50;;;0.50;;
74177;SDS011;62540;48.456;-4.456;2023-08-07T05:15:23;0.75;;;0.75;;
74177;SDS011;62540;48.456;-4.456;2023-08-07T05:17:50;1.00;;;1.00;;
74177;SDS011;62540;48.456;-4.456;2023-08-07T05:20:16;1.50;;;1.50;;
74177;SDS011;62540;48.456;-4.456;2023-08-07T05:22:42;1.75;;;1.75;;
74177;SDS011;62540;48.456;-4.456;2023-08-07T05:25:08;1.75;;;1.00;;
74177;SDS011;62540;48.456;-4.456;2023-08-07T05:27:34;2.00;;;2.00;;
74177;SDS011;62540;48.456;-4.456;2023-08-07T05:30:00;1.00;;;1.00;;
74177;SDS011;62540;48.456;-4.456;2023-08-07T05:32:25;1.75;;;0.75;;
74177;SDS011;62540;48.456;-4.456;2023-08-07T05:34:51;0.00;;;0.00;;
74177;SDS011;62540;48.456;-4.456;2023-08-07T05:37:16;1.00;;;0.25;;
74177;SDS011;62540;48.456;-4.456;2023-08-07T05:39:41;0.25;;;0.25;;
74177;SDS011;62540;48.456;-4.456;2023-08-07T05:42:07;0.75;;;0.75;;
74177;SDS011;62540;48.456;-4.456;2023-08-07T05:44:34;1.00;;;1.00;;
74177;SDS011;62540;48.456;-4.456;2023-08-07T05:46:59;1.00;;;1.00;;
74177;SDS011;62540;48.456;-4.456;2023-08-07T05:49:25;2.75;;;2.75;;
74177;SDS011;62540;48.456;-4.456;2023-08-07T05:51:50;5.25;;;2.75;;
74177;SDS011;62540;48.456;-4.456;2023-08-07T05:54:16;1.75;;;1.75;;
74177;SDS011;62540;48.456;-4.456;2023-08-07T05:56:41;2.00;;;2.00;;
74177;SDS011;62540;48.456;-4.456;2023-08-07T05:59:07;2.75;;;2.25;;
74177;SDS011;62540;48.456;-4.456;2023-08-07T06:01:32;2.00;;;2.00;;
74177;SDS011;62540;48.456;-4.456;2023-08-07T06:03:58;2.00;;;1.75;;
74177;SDS011;62540;48.456;-4.456;2023-08-07T06:06:26;1.50;;;1.50;;
74177;SDS011;62540;48.456;-4.456;2023-08-07T06:08:55;2.00;;;2.00;;
74177;SDS011;62540;48.456;-4.456;2023-08-07T06:11:20;2.50;;;2.00;;
74177;SDS011;62540;48.456;-4.456;2023-08-07T06:13:46;2.00;;;2.00;;
74177;SDS011;62540;48.456;-4.456;2023-08-07T06:16:11;2.00;;;2.00;;
74177;SDS011;62540;48.456;-4.456;2023-08-07T06:18:37;5.50;;;3.25;;
74177;SDS011;62540;48.456;-4.456;2023-08-07T06:21:02;1.50;;;1.50;;
74177;SDS011;62540;48.456;-4.456;2023-08-07T06:23:35;2.00;;;2.00;;
74177;SDS011;62540;48.456;-4.456;2023-08-07T06:26:01;2.00;;;2.00;;
74177;SDS011;62540;48.456;-4.456;2023-08-07T06:28:29;1.00;;;1.00;;
74177;SDS011;62540;48.456;-4.456;2023-08-07T06:31:04;1.00;;;0.00;;
74177;SDS011;62540;48.456;-4.456;2023-08-07T06:33:31;0.00;;;0.00;;
74177;SDS011;62540;48.456;-4.456;2023-08-07T06:35:58;1.00;;;1.00;;
74177;SDS011;62540;48.456;-4.456;2023-08-07T06:38:23;1.75;;;0.75;;
74177;SDS011;62540;48.456;-4.456;2023-08-07T06:40:48;1.50;;;1.00;;
74177;SDS011;62540;48.456;-4.456;2023-08-07T06:43:14;1.00;;;0.00;;
74177;SDS011;62540;48.456;-4.456;2023-08-07T06:45:39;0.50;;;0.25;;
74177;SDS011;62540;48.456;-4.456;2023-08-07T06:48:05;0.00;;;0.00;;
74177;SDS011;62540;48.456;-4.456;2023-08-07T06:50:30;0.00;;;0.00;;
74177;SDS011;62540;48.456;-4.456;2023-08-07T06:52:55;0.00;;;0.00;;
74177;SDS011;62540;48.456;-4.456;2023-08-07T06:55:21;1.00;;;1.00;;
74177;SDS011;62540;48.456;-4.456;2023-08-07T06:57:46;1.00;;;0.25;;
74177;SDS011;62540;48.456;-4.456;2023-08-07T07:00:12;2.00;;;0.25;;
74177;SDS011;62540;48.456;-4.456;2023-08-07T07:02:37;0.25;;;0.25;;
74177;SDS011;62540;48.456;-4.456;2023-08-07T07:05:03;1.75;;;1.00;;
74177;SDS011;62540;48.456;-4.456;2023-08-07T07:07:30;1.00;;;1.00;;
74177;SDS011;62540;48.456;-4.456;2023-08-07T07:09:55;1.00;;;1.00;;
74177;SDS011;62540;48.456;-4.456;2023-08-07T07:12:22;1.00;;;1.00;;
74177;SDS011;62540;48.456;-4.456;2023-08-07T07:14:48;2.00;;;1.00;;
74177;SDS011;62540;48.456;-4.456;2023-08-07T07:17:14;2.00;;;1.00;;
74177;SDS011;62540;48.456;-4.456;2023-08-07T07:19:39;0.00;;;0.00;;
74177;SDS011;62540;48.456;-4.456;2023-08-07T07:22:04;1.25;;;0.50;;
74177;SDS011;62540;48.456;-4.456;2023-08-07T07:24:30;1.00;;;1.00;;
74177;SDS011;62540;48.456;-4.456;2023-08-07T07:26:55;1.50;;;0.75;;
74177;SDS011;62540;48.456;-4.456;2023-08-07T07:29:21;1.00;;;1.00;;
74177;SDS011;62540;48.456;-4.456;2023-08-07T07:31:46;1.00;;;0.25;;
74177;SDS011;62540;48.456;-4.456;2023-08-07T07:34:12;1.50;;;0.25;;
74177;SDS011;62540;48.456;-4.456;2023-08-07T07:36:37;0.00;;;0.00;;
74177;SDS011;62540;48.456;-4.456;2023-08-07T07:39:03;1.00;;;1.00;;
74177;SDS011;62540;48.456;-4.456;2023-08-07T07:41:28;2.50;;;1.50;;
74177;SDS011;62540;48.456;-4.456;2023-08-07T07:43:53;0.75;;;0.75;;
74177;SDS011;62540;48.456;-4.456;2023-08-07T07:46:21;3.75;;;1.00;;
74177;SDS011;62540;48.456;-4.456;2023-08-07T07:48:47;1.00;;;1.00;;
74177;SDS011;62540;48.456;-4.456;2023-08-07T07:51:12;1.00;;;1.00;;
74177;SDS011;62540;48.456;-4.456;2023-08-07T07:53:38;2.00;;;1.00;;
74177;SDS011;62540;48.456;-4.456;2023-08-07T07:56:03;2.00;;;1.75;;
74177;SDS011;62540;48.456;-4.456;2023-08-07T07:58:28;1.00;;;0.75;;
74177;SDS011;62540;48.456;-4.456;2023-08-07T08:00:54;1.00;;;1.00;;
74177;SDS011;62540;48.456;-4.456;2023-08-07T08:03:20;2.00;;;2.00;;
74177;SDS011;62540;48.456;-4.456;2023-08-07T08:05:48;1.00;;;1.00;;
74177;SDS011;62540;48.456;-4.456;2023-08-07T08:08:17;2.75;;;1.75;;
74177;SDS011;62540;48.456;-4.456;2023-08-07T08:10:43;1.25;;;1.00;;
74177;SDS011;62540;48.456;-4.456;2023-08-07T08:13:09;1.25;;;1.00;;
74177;SDS011;62540;48.456;-4.456;2023-08-07T08:15:38;1.00;;;1.00;;
74177;SDS011;62540;48.456;-4.456;2023-08-07T08:18:03;2.75;;;2.00;;
74177;SDS011;62540;48.456;-4.456;2023-08-07T08:20:29;0.75;;;0.75;;
74177;SDS011;62540;48.456;-4.456;2023-08-07T08:22:56;1.00;;;1.00;;
74177;SDS011;62540;48.456;-4.456;2023-08-07T08:25:21;1.25;;;1.25;;
74177;SDS011;62540;48.456;-4.456;2023-08-07T08:27:47;1.75;;;1.75;;
74177;SDS011;62540;48.456;-4.456;2023-08-07T08:30:12;1.00;;;1.00;;
74177;SDS011;62540;48.456;-4.456;2023-08-07T08:32:38;1.50;;;1.00;;
74177;SDS011;62540;48.456;-4.456;2023-08-07T08:35:04;0.00;;;0.00;;
74177;SDS011;62540;48.456;-4.456;2023-08-07T08:37:30;2.00;;;2.00;;
74177;SDS011;62540;48.456;-4.456;2023-08-07T08:39:56;2.50;;;1.00;;
74177;SDS011;62540;48.456;-4.456;2023-08-07T08:42:21;1.00;;;1.00;;
74177;SDS011;62540;48.456;-4.456;2023-08-07T08:44:57;1.00;;;1.00;;
74177;SDS011;62540;48.456;-4.456;2023-08-07T08:47:25;1.00;;;1.00;;
74177;SDS011;62540;48.456;-4.456;2023-08-07T08:50:01;1.25;;;1.25;;
74177;SDS011;62540;48.456;-4.456;2023-08-07T08:52:30;1.00;;;1.00;;
74177;SDS011;62540;48.456;-4.456;2023-08-07T08:54:57;1.00;;;1.00;;
74177;SDS011;62540;48.456;-4.456;2023-08-07T08:57:24;2.50;;;1.25;;
74177;SDS011;62540;48.456;-4.456;2023-08-07T08:59:51;1.50;;;1.00;;
74177;SDS011;62540;48.456;-4.456;2023-08-07T09:02:16;2.00;;;2.00;;
74177;SDS011;62540;48.456;-4.456;2023-08-07T09:04:43;1.25;;;1.00;;
74177;SDS011;62540;48.456;-4.456;2023-08-07T09:07:09;1.00;;;0.25;;
74177;SDS011;62540;48.456;-4.456;2023-08-07T09:09:38;1.00;;;1.00;;
74177;SDS011;62540;48.456;-4.456;2023-08-07T09:12:05;1.00;;;1.00;;
74177;SDS011;62540;48.456;-4.456;2023-08-07T09:14:33;1.00;;;0.50;;
74177;SDS011;62540;48.456;-4.456;2023-08-07T09:17:04;0.00;;;0.00;;
74177;SDS011;62540;48.456;-4.456;2023-08-07T09:19:30;2.75;;;1.00;;
74177;SDS011;62540;48.456;-4.456;2023-08-07T09:21:56;1.00;;;1.00;;
74177;SDS011;62540;48.456;-4.456;2023-08-07T09:24:21;0.00;;;0.00;;
74177;SDS011;62540;48.456;-4.456;2023-08-07T09:26:47;0.25;;;0.00;;
74177;SDS011;62540;48.456;-4.456;2023-08-07T09:29:13;0.25;;;0.00;;
74177;SDS011;62540;48.456;-4.456;2023-08-07T09:31:42;0.00;;;0.00;;
74177;SDS011;62540;48.456;-4.456;2023-08-07T09:34:10;0.00;;;0.00;;
74177;SDS011;62540;48.456;-4.456;2023-08-07T09:36:38;0.00;;;0.00;;
74177;SDS011;62540;48.456;-4.456;2023-08-07T09:39:04;0.00;;;0.00;;
74177;SDS011;62540;48.456;-4.456;2023-08-07T09:41:30;1.00;;;0.25;;
74177;SDS011;62540;48.456;-4.456;2023-08-07T09:43:59;0.00;;;0.00;;
74177;SDS011;62540;48.456;-4.456;2023-08-07T09:46:33;0.50;;;0.50;;
74177;SDS011;62540;48.456;-4.456;2023-08-07T09:49:06;0.25;;;0.25;;
74177;SDS011;62540;48.456;-4.456;2023-08-07T09:51:41;0.50;;;0.00;;
74177;SDS011;62540;48.456;-4.456;2023-08-07T09:54:08;0.00;;;0.00;;
74177;SDS011;62540;48.456;-4.456;2023-08-07T09:56:34;1.00;;;0.00;;
74177;SDS011;62540;48.456;-4.456;2023-08-07T09:59:00;0.25;;;0.00;;
74177;SDS011;62540;48.456;-4.456;2023-08-07T10:01:26;1.00;;;0.00;;
74177;SDS011;62540;48.456;-4.456;2023-08-07T10:03:51;1.00;;;0.25;;
74177;SDS011;62540;48.456;-4.456;2023-08-07T10:06:17;0.00;;;0.00;;
74177;SDS011;62540;48.456;-4.456;2023-08-07T10:08:44;0.25;;;0.00;;
74177;SDS011;62540;48.456;-4.456;2023-08-07T10:11:10;0.00;;;0.00;;
74177;SDS011;62540;48.456;-4.456;2023-08-07T10:13:37;0.50;;;0.00;;
74177;SDS011;62540;48.456;-4.456;2023-08-07T10:16:03;1.50;;;1.00;;
74177;SDS011;62540;48.456;-4.456;2023-08-07T10:18:29;1.25;;;1.00;;
74177;SDS011;62540;48.456;-4.456;2023-08-07T10:20:54;0.75;;;0.00;;
74177;SDS011;62540;48.456;-4.456;2023-08-07T10:23:22;0.00;;;0.00;;
74177;SDS011;62540;48.456;-4.456;2023-08-07T10:25:47;0.50;;;0.00;;
74177;SDS011;62540;48.456;-4.456;2023-08-07T10:28:16;0.00;;;0.00;;
74177;SDS011;62540;48.456;-4.456;2023-08-07T10:30:44;2.00;;;1.00;;
74177;SDS011;62540;48.456;-4.456;2023-08-07T10:33:10;0.50;;;0.00;;
74177;SDS011;62540;48.456;-4.456;2023-08-07T10:35:37;1.75;;;1.00;;
74177;SDS011;62540;48.456;-4.456;2023-08-07T10:38:11;0.00;;;0.00;;
74177;SDS011;62540;48.456;-4.456;2023-08-07T10:43:26;1.00;;;1.00;;
74177;SDS011;62540;48.456;-4.456;2023-08-07T10:45:53;0.50;;;0.50;;
74177;SDS011;62540;48.456;-4.456;2023-08-07T10:48:19;0.50;;;0.00;;
74177;SDS011;62540;48.456;-4.456;2023-08-07T10:50:49;1.00;;;1.00;;
74177;SDS011;62540;48.456;-4.456;2023-08-07T10:53:35;0.00;;;0.00;;
74177;SDS011;62540;48.456;-4.456;2023-08-07T10:56:08;0.00;;;0.00;;
74177;SDS011;62540;48.456;-4.456;2023-08-07T10:58:35;1.00;;;0.00;;
74177;SDS011;62540;48.456;-4.456;2023-08-07T11:03:53;0.00;;;0.00;;
74177;SDS011;62540;48.456;-4.456;2023-08-07T11:06:21;1.00;;;0.00;;
74177;SDS011;62540;48.456;-4.456;2023-08-07T11:08:49;0.00;;;0.00;;
74177;SDS011;62540;48.456;-4.456;2023-08-07T11:11:15;0.00;;;0.00;;
74177;SDS011;62540;48.456;-4.456;2023-08-07T11:13:40;0.00;;;0.00;;
74177;SDS011;62540;48.456;-4.456;2023-08-07T11:16:06;0.00;;;0.00;;
74177;SDS011;62540;48.456;-4.456;2023-08-07T11:18:31;0.00;;;0.00;;
74177;SDS011;62540;48.456;-4.456;2023-08-07T11:20:57;0.75;;;0.75;;
74177;SDS011;62540;48.456;-4.456;2023-08-07T11:23:24;0.00;;;0.00;;
74177;SDS011;62540;48.456;-4.456;2023-08-07T11:25:51;0.25;;;0.25;;
74177;SDS011;62540;48.456;-4.456;2023-08-07T11:28:20;0.50;;;0.00;;
74177;SDS011;62540;48.456;-4.456;2023-08-07T11:30:48;0.00;;;0.00;;
74177;SDS011;62540;48.456;-4.456;2023-08-07T11:33:14;0.00;;;0.00;;
74177;SDS011;62540;48.456;-4.456;2023-08-07T11:35:41;1.00;;;1.00;;
74177;SDS011;62540;48.456;-4.456;2023-08-07T11:38:07;1.00;;;0.00;;
74177;SDS011;62540;48.456;-4.456;2023-08-07T11:40:33;1.00;;;0.00;;
74177;SDS011;62540;48.456;-4.456;2023-08-07T11:42:58;0.00;;;0.00;;
74177;SDS011;62540;48.456;-4.456;2023-08-07T11:45:24;0.00;;;0.00;;
74177;SDS011;62540;48.456;-4.456;2023-08-07T11:47:49;0.50;;;0.00;;
74177;SDS011;62540;48.456;-4.456;2023-08-07T11:50:15;0.25;;;0.00;;
74177;SDS011;62540;48.456;-4.456;2023-08-07T11:52:40;0.00;;;0.00;;
74177;SDS011;62540;48.456;-4.456;2023-08-07T11:55:06;0.00;;;0.00;;
74177;SDS011;62540;48.456;-4.456;2023-08-07T11:57:33;0.50;;;0.50;;
74177;SDS011;62540;48.456;-4.456;2023-08-07T11:59:59;0.25;;;0.25;;
74177;SDS011;62540;48.456;-4.456;2023-08-07T12:02:25;0.00;;;0.00;;
74177;SDS011;62540;48.456;-4.456;2023-08-07T12:04:50;1.00;;;1.00;;
74177;SDS011;62540;48.456;-4.456;2023-08-07T12:07:19;1.00;;;0.25;;
74177;SDS011;62540;48.456;-4.456;2023-08-07T12:09:48;0.00;;;0.00;;
74177;SDS011;62540;48.456;-4.456;2023-08-07T12:12:13;0.00;;;0.00;;
74177;SDS011;62540;48.456;-4.456;2023-08-07T12:14:39;0.25;;;0.25;;
74177;SDS011;62540;48.456;-4.456;2023-08-07T12:17:08;1.00;;;1.00;;
74177;SDS011;62540;48.456;-4.456;2023-08-07T12:19:37;1.50;;;1.00;;
74177;SDS011;62540;48.456;-4.456;2023-08-07T12:22:06;0.25;;;0.00;;
74177;SDS011;62540;48.456;-4.456;2023-08-07T12:24:32;1.25;;;1.00;;
74177;SDS011;62540;48.456;-4.456;2023-08-07T12:26:59;1.00;;;0.00;;
74177;SDS011;62540;48.456;-4.456;2023-08-07T12:29:24;1.75;;;1.00;;
74177;SDS011;62540;48.456;-4.456;2023-08-07T12:31:54;0.00;;;0.00;;
74177;SDS011;62540;48.456;-4.456;2023-08-07T12:34:19;0.00;;;0.00;;
74177;SDS011;62540;48.456;-4.456;2023-08-07T12:36:45;0.00;;;0.00;;
74177;SDS011;62540;48.456;-4.456;2023-08-07T12:39:10;1.00;;;0.00;;
74177;SDS011;62540;48.456;-4.456;2023-08-07T12:41:35;0.00;;;0.00;;
74177;SDS011;62540;48.456;-4.456;2023-08-07T12:44:01;0.25;;;0.00;;
74177;SDS011;62540;48.456;-4.456;2023-08-07T12:46:26;1.00;;;0.75;;
74177;SDS011;62540;48.456;-4.456;2023-08-07T12:48:52;1.00;;;1.00;;
74177;SDS011;62540;48.456;-4.456;2023-08-07T12:51:17;0.50;;;0.50;;
74177;SDS011;62540;48.456;-4.456;2023-08-07T12:53:42;0.50;;;0.50;;
74177;SDS011;62540;48.456;-4.456;2023-08-07T12:56:09;0.00;;;0.00;;
74177;SDS011;62540;48.456;-4.456;2023-08-07T12:58:35;0.00;;;0.00;;
74177;SDS011;62540;48.456;-4.456;2023-08-07T13:01:00;0.00;;;0.00;;
74177;SDS011;62540;48.456;-4.456;2023-08-07T13:03:26;1.00;;;0.00;;
74177;SDS011;62540;48.456;-4.456;2023-08-07T13:05:51;1.25;;;0.00;;
74177;SDS011;62540;48.456;-4.456;2023-08-07T13:08:17;0.00;;;0.00;;
74177;SDS011;62540;48.456;-4.456;2023-08-07T13:10:42;0.25;;;0.00;;
74177;SDS011;62540;48.456;-4.456;2023-08-07T13:13:07;0.00;;;0.00;;
74177;SDS011;62540;48.456;-4.456;2023-08-07T13:15:33;0.75;;;0.00;;
74177;SDS011;62540;48.456;-4.456;2023-08-07T13:17:58;0.00;;;0.00;;
74177;SDS011;62540;48.456;-4.456;2023-08-07T13:20:25;0.00;;;0.00;;
74177;SDS011;62540;48.456;-4.456;2023-08-07T13:22:51;0.00;;;0.00;;
74177;SDS011;62540;48.456;-4.456;2023-08-07T13:25:16;0.50;;;0.50;;
74177;SDS011;62540;48.456;-4.456;2023-08-07T13:27:42;0.00;;;0.00;;
74177;SDS011;62540;48.456;-4.456;2023-08-07T13:30:08;0.00;;;0.00;;
74177;SDS011;62540;48.456;-4.456;2023-08-07T13:32:34;0.00;;;0.00;;
74177;SDS011;62540;48.456;-4.456;2023-08-07T13:35:00;0.00;;;0.00;;
74177;SDS011;62540;48.456;-4.456;2023-08-07T13:37:26;0.00;;;0.00;;
74177;SDS011;62540;48.456;-4.456;2023-08-07T13:39:51;0.00;;;0.00;;
74177;SDS011;62540;48.456;-4.456;2023-08-07T13:42:18;0.00;;;0.00;;
74177;SDS011;62540;48.456;-4.456;2023-08-07T13:44:44;0.00;;;0.00;;
74177;SDS011;62540;48.456;-4.456;2023-08-07T13:47:09;0.00;;;0.00;;
74177;SDS011;62540;48.456;-4.456;2023-08-07T13:49:36;0.00;;;0.00;;
74177;SDS011;62540;48.456;-4.456;2023-08-07T13:52:02;1.00;;;0.00;;
74177;SDS011;62540;48.456;-4.456;2023-08-07T13:54:27;0.00;;;0.00;;
74177;SDS011;62540;48.456;-4.456;2023-08-07T13:56:53;0.00;;;0.00;;
74177;SDS011;62540;48.456;-4.456;2023-08-07T13:59:19;0.75;;;0.00;;
74177;SDS011;62540;48.456;-4.456;2023-08-07T14:01:44;0.25;;;0.25;;
74177;SDS011;62540;48.456;-4.456;2023-08-07T14:04:09;0.75;;;0.00;;
74177;SDS011;62540;48.456;-4.456;2023-08-07T14:06:35;1.25;;;0.00;;
74177;SDS011;62540;48.456;-4.456;2023-08-07T14:09:00;1.50;;;0.00;;
74177;SDS011;62540;48.456;-4.456;2023-08-07T14:11:26;0.25;;;0.00;;
74177;SDS011;62540;48.456;-4.456;2023-08-07T14:13:55;0.25;;;0.00;;
74177;SDS011;62540;48.456;-4.456;2023-08-07T14:16:21;0.00;;;0.00;;
74177;SDS011;62540;48.456;-4.456;2023-08-07T14:18:47;0.00;;;0.00;;
74177;SDS011;62540;48.456;-4.456;2023-08-07T14:21:12;0.00;;;0.00;;
74177;SDS011;62540;48.456;-4.456;2023-08-07T14:23:38;0.00;;;0.00;;
74177;SDS011;62540;48.456;-4.456;2023-08-07T14:26:03;1.00;;;1.00;;
74177;SDS011;62540;48.456;-4.456;2023-08-07T14:28:28;0.00;;;0.00;;
74177;SDS011;62540;48.456;-4.456;2023-08-07T14:30:56;1.00;;;1.00;;
74177;SDS011;62540;48.456;-4.456;2023-08-07T14:33:24;0.00;;;0.00;;
74177;SDS011;62540;48.456;-4.456;2023-08-07T14:35:49;1.00;;;0.00;;
74177;SDS011;62540;48.456;-4.456;2023-08-07T14:38:15;0.00;;;0.00;;